createdAt,value
2017-12-04T00:00:04.554Z,21.85
2017-12-04T00:00:16.741Z,21.85
2017-12-04T00:00:29.827Z,21.7
2017-12-04T00:00:42.949Z,21.68
2017-12-04T00:00:56.069Z,21.74
2017-12-04T00:01:09.109Z,21.77
2017-12-04T00:01:22.227Z,21.74
2017-12-04T00:01:35.307Z,21.59
2017-12-04T00:01:48.472Z,21.64
2017-12-04T00:02:01.607Z,21.73
2017-12-04T00:02:13.801Z,21.74
2017-12-04T00:02:26.418Z,21.74
2017-12-04T00:02:39.498Z,21.71
2017-12-04T00:02:52.184Z,21.73
2017-12-04T00:03:05.262Z,21.71
2017-12-04T00:03:18.335Z,21.68
2017-12-04T00:03:30.927Z,21.74
2017-12-04T00:03:44.027Z,21.71
2017-12-04T00:03:57.134Z,21.64
2017-12-04T00:04:10.385Z,21.68
2017-12-04T00:04:23.478Z,21.71
2017-12-04T00:04:36.556Z,21.7
2017-12-04T00:04:49.668Z,21.71
2017-12-04T00:05:02.736Z,21.61
2017-12-04T00:05:14.906Z,21.66
2017-12-04T00:05:28.031Z,21.64
2017-12-04T00:05:41.140Z,21.67
2017-12-04T00:05:54.356Z,21.71
2017-12-04T00:06:07.474Z,21.68
2017-12-04T00:06:20.075Z,21.67
2017-12-04T00:06:33.183Z,21.62
2017-12-04T00:06:46.268Z,21.62
2017-12-04T00:06:58.910Z,21.64
2017-12-04T00:07:11.049Z,21.61
2017-12-04T00:07:24.150Z,21.66
2017-12-04T00:07:36.843Z,21.64
2017-12-04T00:07:49.980Z,21.62
2017-12-04T00:08:03.114Z,21.58
2017-12-04T00:08:16.192Z,21.53
2017-12-04T00:08:29.355Z,21.58
2017-12-04T00:08:42.473Z,21.52
2017-12-04T00:08:55.629Z,21.61
2017-12-04T00:09:08.726Z,21.56
2017-12-04T00:09:21.805Z,21.58
2017-12-04T00:09:34.426Z,21.58
2017-12-04T00:09:47.643Z,21.61
2017-12-04T00:10:00.295Z,21.41
2017-12-04T00:10:11.974Z,21.37
2017-12-04T00:10:25.077Z,21.64
2017-12-04T00:10:38.213Z,21.49
2017-12-04T00:10:50.888Z,21.64
2017-12-04T00:11:04.056Z,21.71
2017-12-04T00:11:16.189Z,21.56
2017-12-04T00:11:29.267Z,21.74
2017-12-04T00:11:42.371Z,21.68
2017-12-04T00:11:55.494Z,21.83
2017-12-04T00:12:08.636Z,21.68
2017-12-04T00:12:21.719Z,21.74
2017-12-04T00:12:34.390Z,21.74
2017-12-04T00:12:47.503Z,21.74
2017-12-04T00:13:00.585Z,21.67
2017-12-04T00:13:13.148Z,21.74
2017-12-04T00:13:26.278Z,21.7
2017-12-04T00:13:39.422Z,21.71
2017-12-04T00:13:52.607Z,21.73
2017-12-04T00:14:05.717Z,21.7
2017-12-04T00:14:18.360Z,21.7
2017-12-04T00:14:31.445Z,21.64
2017-12-04T00:14:44.534Z,21.67
2017-12-04T00:14:57.165Z,21.58
2017-12-04T00:15:10.280Z,21.64
2017-12-04T00:15:23.335Z,21.62
2017-12-04T00:15:36.391Z,21.64
2017-12-04T00:15:49.503Z,21.66
2017-12-04T00:16:02.566Z,21.66
2017-12-04T00:16:15.649Z,21.64
2017-12-04T00:16:28.320Z,21.66
2017-12-04T00:16:40.981Z,21.61
2017-12-04T00:16:54.049Z,21.61
2017-12-04T00:17:06.667Z,21.66
2017-12-04T00:17:19.779Z,21.64
2017-12-04T00:17:32.883Z,21.68
2017-12-04T00:17:45.555Z,21.61
2017-12-04T00:17:58.657Z,21.64
2017-12-04T00:18:11.688Z,21.66
2017-12-04T00:18:24.799Z,21.66
2017-12-04T00:18:38.100Z,21.62
2017-12-04T00:18:50.725Z,21.61
2017-12-04T00:19:03.396Z,21.53
2017-12-04T00:19:16.605Z,21.59
2017-12-04T00:19:29.253Z,21.62
2017-12-04T00:19:41.890Z,21.59
2017-12-04T00:19:55.002Z,21.52
2017-12-04T00:20:08.115Z,21.61
2017-12-04T00:20:21.213Z,21.66
2017-12-04T00:20:34.313Z,21.64
2017-12-04T00:20:46.980Z,21.45
2017-12-04T00:21:00.116Z,21.46
2017-12-04T00:21:12.690Z,21.49
2017-12-04T00:21:25.770Z,21.51
2017-12-04T00:21:38.828Z,21.51
2017-12-04T00:21:51.910Z,21.58
2017-12-04T00:22:05.036Z,21.52
2017-12-04T00:22:18.176Z,21.53
2017-12-04T00:22:31.261Z,21.41
2017-12-04T00:22:44.392Z,21.53
2017-12-04T00:22:57.468Z,21.51
2017-12-04T00:23:10.632Z,21.43
2017-12-04T00:23:23.707Z,21.53
2017-12-04T00:23:36.764Z,21.51
2017-12-04T00:23:49.375Z,21.48
2017-12-04T00:24:02.472Z,21.55
2017-12-04T00:24:15.134Z,21.52
2017-12-04T00:24:28.310Z,21.53
2017-12-04T00:24:41.412Z,21.4
2017-12-04T00:24:54.136Z,21.49
2017-12-04T00:25:07.197Z,21.52
2017-12-04T00:25:19.810Z,21.46
2017-12-04T00:25:32.439Z,21.46
2017-12-04T00:25:45.479Z,21.46
2017-12-04T00:25:58.159Z,21.38
2017-12-04T00:26:10.813Z,21.27
2017-12-04T00:26:23.864Z,21.34
2017-12-04T00:26:37.000Z,21.34
2017-12-04T00:26:50.339Z,21.31
2017-12-04T00:27:03.371Z,21.28
2017-12-04T00:27:15.540Z,21.36
2017-12-04T00:27:28.204Z,21.46
2017-12-04T00:27:41.312Z,21.51
2017-12-04T00:27:53.969Z,21.43
2017-12-04T00:28:07.080Z,21.49
2017-12-04T00:28:20.148Z,21.55
2017-12-04T00:28:33.367Z,21.49
2017-12-04T00:28:46.417Z,21.56
2017-12-04T00:28:59.535Z,21.52
2017-12-04T00:29:12.686Z,21.58
2017-12-04T00:29:25.263Z,21.49
2017-12-04T00:29:38.387Z,21.55
2017-12-04T00:29:51.504Z,21.55
2017-12-04T00:30:04.583Z,21.53
2017-12-04T00:30:17.664Z,21.58
2017-12-04T00:30:30.815Z,21.55
2017-12-04T00:30:43.936Z,21.58
2017-12-04T00:30:56.586Z,21.59
2017-12-04T00:31:09.260Z,21.51
2017-12-04T00:31:22.367Z,21.37
2017-12-04T00:31:35.437Z,21.58
2017-12-04T00:31:48.537Z,21.58
2017-12-04T00:32:01.145Z,21.58
2017-12-04T00:32:13.981Z,21.66
2017-12-04T00:32:27.074Z,21.61
2017-12-04T00:32:40.158Z,21.62
2017-12-04T00:32:52.796Z,21.62
2017-12-04T00:33:05.862Z,21.67
2017-12-04T00:33:18.982Z,21.67
2017-12-04T00:33:32.131Z,21.62
2017-12-04T00:33:45.171Z,21.7
2017-12-04T00:33:58.255Z,21.68
2017-12-04T00:34:11.340Z,21.71
2017-12-04T00:34:25.178Z,21.7
2017-12-04T00:34:38.266Z,21.67
2017-12-04T00:34:50.878Z,21.55
2017-12-04T00:35:03.993Z,21.45
2017-12-04T00:35:17.118Z,21.46
2017-12-04T00:35:30.228Z,21.4
2017-12-04T00:35:43.386Z,21.48
2017-12-04T00:35:56.501Z,21.48
2017-12-04T00:36:09.158Z,21.46
2017-12-04T00:36:22.234Z,21.43
2017-12-04T00:36:34.818Z,21.46
2017-12-04T00:36:47.914Z,21.45
2017-12-04T00:37:01.054Z,21.4
2017-12-04T00:37:14.142Z,21.46
2017-12-04T00:37:26.768Z,21.46
2017-12-04T00:37:39.858Z,21.59
2017-12-04T00:37:52.995Z,21.62
2017-12-04T00:38:06.045Z,21.61
2017-12-04T00:38:19.340Z,21.61
2017-12-04T00:38:31.972Z,21.52
2017-12-04T00:38:45.129Z,21.62
2017-12-04T00:38:58.185Z,21.52
2017-12-04T00:39:11.234Z,21.53
2017-12-04T00:39:24.361Z,21.51
2017-12-04T00:39:36.963Z,21.49
2017-12-04T00:39:50.123Z,21.45
2017-12-04T00:40:03.238Z,21.48
2017-12-04T00:40:15.873Z,21.51
2017-12-04T00:40:28.990Z,21.53
2017-12-04T00:40:42.143Z,21.49
2017-12-04T00:40:55.239Z,21.49
2017-12-04T00:41:07.856Z,21.52
2017-12-04T00:41:20.925Z,21.56
2017-12-04T00:41:34.058Z,21.56
2017-12-04T00:41:47.163Z,21.59
2017-12-04T00:42:00.218Z,21.62
2017-12-04T00:42:12.865Z,21.55
2017-12-04T00:42:25.482Z,21.52
2017-12-04T00:42:38.554Z,21.55
2017-12-04T00:42:51.181Z,21.61
2017-12-04T00:43:03.820Z,21.56
2017-12-04T00:43:16.445Z,21.58
2017-12-04T00:43:28.626Z,21.59
2017-12-04T00:43:41.229Z,21.62
2017-12-04T00:43:53.909Z,21.64
2017-12-04T00:44:06.997Z,21.53
2017-12-04T00:44:19.674Z,21.64
2017-12-04T00:44:32.289Z,21.58
2017-12-04T00:44:44.915Z,21.56
2017-12-04T00:44:58.012Z,21.59
2017-12-04T00:45:11.069Z,21.61
2017-12-04T00:45:24.166Z,21.56
2017-12-04T00:45:37.520Z,21.62
2017-12-04T00:45:50.640Z,21.53
2017-12-04T00:46:03.702Z,21.52
2017-12-04T00:46:16.760Z,21.61
2017-12-04T00:46:29.859Z,21.66
2017-12-04T00:46:42.944Z,21.61
2017-12-04T00:46:55.588Z,21.61
2017-12-04T00:47:08.188Z,21.66
2017-12-04T00:47:21.278Z,21.59
2017-12-04T00:47:34.425Z,21.55
2017-12-04T00:47:47.550Z,21.64
2017-12-04T00:48:00.643Z,21.61
2017-12-04T00:48:13.297Z,21.64
2017-12-04T00:48:25.885Z,21.66
2017-12-04T00:48:39.019Z,21.67
2017-12-04T00:48:52.167Z,21.64
2017-12-04T00:49:04.877Z,21.66
2017-12-04T00:49:17.988Z,21.67
2017-12-04T00:49:31.311Z,21.67
2017-12-04T00:49:44.379Z,21.68
2017-12-04T00:49:57.512Z,21.64
2017-12-04T00:50:09.704Z,21.67
2017-12-04T00:50:22.335Z,21.62
2017-12-04T00:50:35.658Z,21.66
2017-12-04T00:50:48.786Z,21.67
2017-12-04T00:51:01.936Z,21.62
2017-12-04T00:51:15.019Z,21.58
2017-12-04T00:51:27.591Z,21.56
2017-12-04T00:51:40.723Z,21.64
2017-12-04T00:51:53.335Z,21.58
2017-12-04T00:52:06.397Z,21.56
2017-12-04T00:52:19.015Z,21.55
2017-12-04T00:52:32.142Z,21.55
2017-12-04T00:52:45.291Z,21.55
2017-12-04T00:52:58.440Z,21.53
2017-12-04T00:53:11.493Z,21.56
2017-12-04T00:53:24.643Z,21.58
2017-12-04T00:53:37.822Z,21.62
2017-12-04T00:53:50.940Z,21.59
2017-12-04T00:54:04.158Z,21.58
2017-12-04T00:54:17.220Z,21.56
2017-12-04T00:54:30.597Z,21.56
2017-12-04T00:54:43.670Z,21.58
2017-12-04T00:54:56.749Z,21.62
2017-12-04T00:55:09.400Z,21.61
2017-12-04T00:55:22.569Z,21.56
2017-12-04T00:55:35.248Z,21.61
2017-12-04T00:55:48.336Z,21.66
2017-12-04T00:56:01.455Z,21.59
2017-12-04T00:56:13.617Z,21.58
2017-12-04T00:56:26.270Z,21.62
2017-12-04T00:56:39.389Z,21.66
2017-12-04T00:56:52.501Z,21.68
2017-12-04T00:57:05.621Z,21.67
2017-12-04T00:57:18.295Z,21.64
2017-12-04T00:57:31.412Z,21.49
2017-12-04T00:57:44.596Z,21.55
2017-12-04T00:57:57.640Z,21.48
2017-12-04T00:58:10.258Z,21.43
2017-12-04T00:58:23.365Z,21.51
2017-12-04T00:58:36.438Z,21.43
2017-12-04T00:58:49.599Z,21.45
2017-12-04T00:59:02.676Z,21.48
2017-12-04T00:59:15.781Z,21.45
2017-12-04T00:59:28.864Z,21.45
2017-12-04T00:59:42.093Z,21.43
2017-12-04T00:59:55.171Z,21.46
2017-12-04T01:00:08.297Z,21.41
2017-12-04T01:00:20.914Z,21.37
2017-12-04T01:00:33.963Z,21.37
2017-12-04T01:00:47.008Z,21.37
2017-12-04T01:01:00.105Z,21.31
2017-12-04T01:01:13.270Z,21.36
2017-12-04T01:01:26.478Z,21.23
2017-12-04T01:01:39.646Z,21.34
2017-12-04T01:01:52.786Z,21.28
2017-12-04T01:02:05.879Z,21.38
2017-12-04T01:02:18.996Z,21.37
2017-12-04T01:02:31.632Z,21.31
2017-12-04T01:02:44.280Z,21.33
2017-12-04T01:02:57.453Z,21.37
2017-12-04T01:03:10.587Z,21.37
2017-12-04T01:03:23.218Z,21.36
2017-12-04T01:03:36.300Z,21.48
2017-12-04T01:03:49.406Z,21.52
2017-12-04T01:04:02.479Z,21.45
2017-12-04T01:04:14.618Z,21.46
2017-12-04T01:04:27.281Z,21.52
2017-12-04T01:04:41.014Z,21.51
2017-12-04T01:04:53.646Z,21.52
2017-12-04T01:05:06.292Z,21.53
2017-12-04T01:05:18.923Z,21.49
2017-12-04T01:05:32.002Z,21.58
2017-12-04T01:05:45.074Z,21.56
2017-12-04T01:05:58.199Z,21.56
2017-12-04T01:06:11.275Z,21.58
2017-12-04T01:06:23.890Z,21.58
2017-12-04T01:06:36.558Z,21.59
2017-12-04T01:06:49.212Z,21.61
2017-12-04T01:07:02.327Z,21.61
2017-12-04T01:07:15.467Z,21.62
2017-12-04T01:07:28.562Z,21.62
2017-12-04T01:07:41.670Z,21.61
2017-12-04T01:07:54.809Z,21.46
2017-12-04T01:08:07.915Z,21.55
2017-12-04T01:08:21.053Z,21.55
2017-12-04T01:08:33.659Z,21.58
2017-12-04T01:08:46.327Z,21.49
2017-12-04T01:08:59.416Z,21.53
2017-12-04T01:09:12.133Z,21.55
2017-12-04T01:09:25.248Z,21.52
2017-12-04T01:09:38.319Z,21.56
2017-12-04T01:09:51.507Z,21.56
2017-12-04T01:10:04.091Z,21.55
2017-12-04T01:10:17.198Z,21.55
2017-12-04T01:10:30.359Z,21.52
2017-12-04T01:10:43.472Z,21.52
2017-12-04T01:10:56.561Z,21.52
2017-12-04T01:11:09.172Z,21.55
2017-12-04T01:11:22.250Z,21.58
2017-12-04T01:11:34.932Z,21.55
2017-12-04T01:11:47.533Z,21.62
2017-12-04T01:12:00.599Z,21.61
2017-12-04T01:12:12.749Z,21.61
2017-12-04T01:12:25.863Z,21.58
2017-12-04T01:12:39.006Z,21.61
2017-12-04T01:12:52.085Z,21.59
2017-12-04T01:13:05.173Z,21.62
2017-12-04T01:13:18.295Z,21.61
2017-12-04T01:13:30.895Z,21.64
2017-12-04T01:13:43.547Z,21.66
2017-12-04T01:13:56.611Z,21.67
2017-12-04T01:14:09.742Z,21.7
2017-12-04T01:14:22.855Z,21.7
2017-12-04T01:14:35.965Z,21.73
2017-12-04T01:14:49.063Z,21.67
2017-12-04T01:15:02.125Z,21.66
2017-12-04T01:15:15.278Z,21.67
2017-12-04T01:15:28.393Z,21.64
2017-12-04T01:15:40.574Z,21.67
2017-12-04T01:15:53.673Z,21.62
2017-12-04T01:16:06.838Z,21.53
2017-12-04T01:16:19.930Z,21.49
2017-12-04T01:16:32.983Z,21.51
2017-12-04T01:16:46.078Z,21.41
2017-12-04T01:16:58.673Z,21.49
2017-12-04T01:17:11.296Z,21.51
2017-12-04T01:17:23.501Z,21.4
2017-12-04T01:17:36.138Z,21.51
2017-12-04T01:17:49.274Z,21.51
2017-12-04T01:18:01.902Z,21.48
2017-12-04T01:18:15.024Z,21.37
2017-12-04T01:18:27.655Z,21.43
2017-12-04T01:18:40.670Z,21.43
2017-12-04T01:18:53.819Z,21.46
2017-12-04T01:19:07.016Z,21.4
2017-12-04T01:19:19.173Z,21.41
2017-12-04T01:19:31.315Z,21.34
2017-12-04T01:19:45.159Z,21.41
2017-12-04T01:19:58.216Z,21.43
2017-12-04T01:20:11.288Z,21.41
2017-12-04T01:20:23.903Z,21.38
2017-12-04T01:20:37.114Z,21.34
2017-12-04T01:20:50.203Z,21.4
2017-12-04T01:21:03.345Z,21.37
2017-12-04T01:21:16.429Z,21.38
2017-12-04T01:21:28.552Z,21.43
2017-12-04T01:21:41.231Z,21.36
2017-12-04T01:21:54.365Z,21.38
2017-12-04T01:22:07.430Z,21.38
2017-12-04T01:22:20.548Z,21.38
2017-12-04T01:22:33.657Z,21.38
2017-12-04T01:22:46.300Z,21.4
2017-12-04T01:22:59.414Z,21.34
2017-12-04T01:23:12.067Z,21.48
2017-12-04T01:23:24.267Z,21.41
2017-12-04T01:23:37.348Z,21.48
2017-12-04T01:23:50.436Z,21.41
2017-12-04T01:24:03.555Z,21.46
2017-12-04T01:24:16.155Z,21.41
2017-12-04T01:24:28.301Z,21.37
2017-12-04T01:24:40.893Z,21.38
2017-12-04T01:24:53.046Z,21.45
2017-12-04T01:25:05.684Z,21.34
2017-12-04T01:25:18.333Z,21.46
2017-12-04T01:25:31.417Z,21.46
2017-12-04T01:25:44.458Z,21.48
2017-12-04T01:25:57.576Z,21.48
2017-12-04T01:26:10.187Z,21.33
2017-12-04T01:26:23.297Z,21.43
2017-12-04T01:26:36.454Z,21.46
2017-12-04T01:26:49.581Z,21.4
2017-12-04T01:27:02.633Z,21.46
2017-12-04T01:27:15.708Z,21.48
2017-12-04T01:27:28.904Z,21.41
2017-12-04T01:27:42.009Z,21.4
2017-12-04T01:27:55.118Z,21.45
2017-12-04T01:28:07.716Z,21.48
2017-12-04T01:28:20.832Z,21.45
2017-12-04T01:28:33.511Z,21.49
2017-12-04T01:28:46.092Z,21.48
2017-12-04T01:28:59.173Z,21.56
2017-12-04T01:29:12.285Z,21.45
2017-12-04T01:29:25.374Z,21.48
2017-12-04T01:29:38.501Z,21.41
2017-12-04T01:29:51.559Z,21.46
2017-12-04T01:30:04.707Z,21.41
2017-12-04T01:30:17.803Z,21.55
2017-12-04T01:30:30.863Z,21.53
2017-12-04T01:30:43.943Z,21.59
2017-12-04T01:30:57.074Z,21.56
2017-12-04T01:31:09.679Z,21.61
2017-12-04T01:31:22.757Z,21.55
2017-12-04T01:31:34.911Z,21.58
2017-12-04T01:31:48.010Z,21.59
2017-12-04T01:32:01.151Z,21.58
2017-12-04T01:32:14.298Z,21.49
2017-12-04T01:32:27.429Z,21.56
2017-12-04T01:32:40.075Z,21.61
2017-12-04T01:32:53.113Z,21.49
2017-12-04T01:33:06.189Z,21.48
2017-12-04T01:33:18.813Z,21.55
2017-12-04T01:33:31.429Z,21.49
2017-12-04T01:33:44.503Z,21.41
2017-12-04T01:33:57.593Z,21.51
2017-12-04T01:34:10.672Z,21.49
2017-12-04T01:34:23.780Z,21.45
2017-12-04T01:34:36.437Z,21.51
2017-12-04T01:34:50.198Z,21.52
2017-12-04T01:35:03.354Z,21.52
2017-12-04T01:35:15.017Z,21.48
2017-12-04T01:35:28.108Z,21.56
2017-12-04T01:35:40.719Z,21.53
2017-12-04T01:35:53.801Z,21.49
2017-12-04T01:36:06.952Z,21.48
2017-12-04T01:36:20.046Z,21.49
2017-12-04T01:36:33.156Z,21.52
2017-12-04T01:36:46.309Z,21.53
2017-12-04T01:36:59.394Z,21.52
2017-12-04T01:37:12.468Z,21.49
2017-12-04T01:37:25.531Z,21.51
2017-12-04T01:37:38.187Z,21.38
2017-12-04T01:37:51.288Z,21.45
2017-12-04T01:38:04.409Z,21.41
2017-12-04T01:38:17.044Z,21.43
2017-12-04T01:38:30.129Z,21.43
2017-12-04T01:38:42.817Z,21.37
2017-12-04T01:38:55.895Z,21.46
2017-12-04T01:39:09.002Z,21.45
2017-12-04T01:39:22.108Z,21.45
2017-12-04T01:39:35.203Z,21.46
2017-12-04T01:39:48.320Z,21.4
2017-12-04T01:40:01.398Z,21.41
2017-12-04T01:40:13.580Z,21.48
2017-12-04T01:40:26.676Z,21.43
2017-12-04T01:40:39.713Z,21.51
2017-12-04T01:40:52.788Z,21.48
2017-12-04T01:41:04.974Z,21.48
2017-12-04T01:41:18.022Z,21.49
2017-12-04T01:41:31.153Z,21.51
2017-12-04T01:41:43.802Z,21.4
2017-12-04T01:41:56.879Z,21.52
2017-12-04T01:42:09.448Z,21.49
2017-12-04T01:42:22.074Z,21.45
2017-12-04T01:42:34.721Z,21.52
2017-12-04T01:42:47.835Z,21.53
2017-12-04T01:43:01.011Z,21.49
2017-12-04T01:43:14.155Z,21.49
2017-12-04T01:43:27.250Z,21.48
2017-12-04T01:43:39.866Z,21.48
2017-12-04T01:43:52.995Z,21.49
2017-12-04T01:44:06.124Z,21.48
2017-12-04T01:44:19.242Z,21.52
2017-12-04T01:44:31.950Z,21.48
2017-12-04T01:44:45.049Z,21.51
2017-12-04T01:44:58.211Z,21.53
2017-12-04T01:45:11.308Z,21.52
2017-12-04T01:45:23.449Z,21.53
2017-12-04T01:45:36.592Z,21.52
2017-12-04T01:45:49.221Z,21.51
2017-12-04T01:46:02.347Z,21.53
2017-12-04T01:46:15.469Z,21.52
2017-12-04T01:46:28.537Z,21.56
2017-12-04T01:46:41.737Z,21.52
2017-12-04T01:46:54.931Z,21.45
2017-12-04T01:47:07.093Z,21.51
2017-12-04T01:47:20.173Z,21.49
2017-12-04T01:47:33.264Z,21.48
2017-12-04T01:47:45.907Z,21.45
2017-12-04T01:47:58.982Z,21.46
2017-12-04T01:48:12.074Z,21.4
2017-12-04T01:48:24.697Z,21.51
2017-12-04T01:48:37.748Z,21.46
2017-12-04T01:48:50.884Z,21.41
2017-12-04T01:49:03.955Z,21.41
2017-12-04T01:49:17.112Z,21.45
2017-12-04T01:49:30.204Z,21.49
2017-12-04T01:49:43.298Z,21.45
2017-12-04T01:49:57.095Z,21.49
2017-12-04T01:50:09.300Z,21.51
2017-12-04T01:50:21.960Z,21.53
2017-12-04T01:50:34.614Z,21.56
2017-12-04T01:50:47.693Z,21.52
2017-12-04T01:51:00.822Z,21.52
2017-12-04T01:51:13.004Z,21.51
2017-12-04T01:51:26.084Z,21.52
2017-12-04T01:51:39.456Z,21.46
2017-12-04T01:51:52.514Z,21.46
2017-12-04T01:52:05.627Z,21.53
2017-12-04T01:52:18.739Z,21.49
2017-12-04T01:52:31.865Z,21.51
2017-12-04T01:52:44.980Z,21.55
2017-12-04T01:52:57.644Z,21.56
2017-12-04T01:53:10.264Z,21.46
2017-12-04T01:53:22.793Z,21.48
2017-12-04T01:53:35.489Z,21.46
2017-12-04T01:53:48.585Z,21.53
2017-12-04T01:54:01.705Z,21.53
2017-12-04T01:54:14.839Z,21.52
2017-12-04T01:54:27.901Z,21.53
2017-12-04T01:54:41.046Z,21.51
2017-12-04T01:54:53.792Z,21.53
2017-12-04T01:55:07.185Z,21.58
2017-12-04T01:55:20.280Z,21.55
2017-12-04T01:55:33.318Z,21.56
2017-12-04T01:55:46.349Z,21.55
2017-12-04T01:55:58.960Z,21.59
2017-12-04T01:56:12.137Z,21.52
2017-12-04T01:56:25.247Z,21.56
2017-12-04T01:56:37.876Z,21.56
2017-12-04T01:56:50.927Z,21.58
2017-12-04T01:57:03.591Z,21.55
2017-12-04T01:57:16.276Z,21.59
2017-12-04T01:57:29.352Z,21.66
2017-12-04T01:57:42.030Z,21.62
2017-12-04T01:57:55.099Z,21.62
2017-12-04T01:58:07.732Z,21.56
2017-12-04T01:58:20.357Z,21.58
2017-12-04T01:58:33.441Z,21.67
2017-12-04T01:58:46.529Z,21.66
2017-12-04T01:58:59.591Z,21.61
2017-12-04T01:59:12.686Z,21.61
2017-12-04T01:59:25.768Z,21.59
2017-12-04T01:59:38.812Z,21.64
2017-12-04T01:59:51.948Z,21.56
2017-12-04T02:00:05.352Z,21.66
2017-12-04T02:00:18.497Z,21.66
2017-12-04T02:00:31.643Z,21.61
2017-12-04T02:00:44.729Z,21.67
2017-12-04T02:00:57.907Z,21.59
2017-12-04T02:01:10.952Z,21.62
2017-12-04T02:01:24.029Z,21.64
2017-12-04T02:01:37.097Z,21.62
2017-12-04T02:01:50.239Z,21.62
2017-12-04T02:02:03.340Z,21.61
2017-12-04T02:02:14.557Z,21.67
2017-12-04T02:02:27.745Z,21.62
2017-12-04T02:02:40.784Z,21.66
2017-12-04T02:02:52.938Z,21.67
2017-12-04T02:03:06.053Z,21.64
2017-12-04T02:03:19.176Z,21.67
2017-12-04T02:03:32.292Z,21.66
2017-12-04T02:03:45.381Z,21.67
2017-12-04T02:03:58.414Z,21.61
2017-12-04T02:04:11.520Z,21.64
2017-12-04T02:04:24.579Z,21.62
2017-12-04T02:04:37.640Z,21.66
2017-12-04T02:04:50.264Z,21.77
2017-12-04T02:05:03.408Z,21.74
2017-12-04T02:05:16.064Z,21.77
2017-12-04T02:05:28.688Z,21.77
2017-12-04T02:05:41.811Z,21.74
2017-12-04T02:05:54.942Z,21.7
2017-12-04T02:06:08.056Z,21.76
2017-12-04T02:06:21.147Z,21.68
2017-12-04T02:06:33.772Z,21.74
2017-12-04T02:06:46.408Z,21.73
2017-12-04T02:06:59.487Z,21.74
2017-12-04T02:07:12.153Z,21.68
2017-12-04T02:07:25.262Z,21.74
2017-12-04T02:07:37.929Z,21.7
2017-12-04T02:07:50.502Z,21.68
2017-12-04T02:08:03.552Z,21.64
2017-12-04T02:08:16.650Z,21.62
2017-12-04T02:08:29.750Z,21.62
2017-12-04T02:08:42.892Z,21.68
2017-12-04T02:08:56.007Z,21.56
2017-12-04T02:09:09.120Z,21.67
2017-12-04T02:09:22.198Z,21.59
2017-12-04T02:09:35.295Z,21.61
2017-12-04T02:09:48.408Z,21.64
2017-12-04T02:10:01.450Z,21.56
2017-12-04T02:10:14.570Z,21.56
2017-12-04T02:10:27.676Z,21.52
2017-12-04T02:10:40.320Z,21.58
2017-12-04T02:10:52.947Z,21.62
2017-12-04T02:11:06.065Z,21.59
2017-12-04T02:11:18.729Z,21.56
2017-12-04T02:11:31.806Z,21.56
2017-12-04T02:11:44.898Z,21.52
2017-12-04T02:11:58.016Z,21.51
2017-12-04T02:12:11.112Z,21.53
2017-12-04T02:12:24.212Z,21.59
2017-12-04T02:12:37.303Z,21.56
2017-12-04T02:12:50.388Z,21.59
2017-12-04T02:13:03.478Z,21.52
2017-12-04T02:13:16.145Z,21.55
2017-12-04T02:13:29.259Z,21.61
2017-12-04T02:13:42.427Z,21.53
2017-12-04T02:13:55.554Z,21.59
2017-12-04T02:14:08.658Z,21.64
2017-12-04T02:14:21.723Z,21.56
2017-12-04T02:14:34.779Z,21.64
2017-12-04T02:14:47.902Z,21.53
2017-12-04T02:15:00.991Z,21.61
2017-12-04T02:15:14.066Z,21.58
2017-12-04T02:15:26.704Z,21.56
2017-12-04T02:15:39.891Z,21.56
2017-12-04T02:15:52.529Z,21.56
2017-12-04T02:16:05.675Z,21.4
2017-12-04T02:16:18.816Z,21.45
2017-12-04T02:16:31.467Z,21.46
2017-12-04T02:16:44.577Z,21.45
2017-12-04T02:16:57.710Z,21.45
2017-12-04T02:17:10.869Z,21.41
2017-12-04T02:17:23.475Z,21.51
2017-12-04T02:17:36.581Z,21.46
2017-12-04T02:17:49.204Z,21.46
2017-12-04T02:18:02.301Z,21.45
2017-12-04T02:18:15.499Z,21.53
2017-12-04T02:18:28.606Z,21.49
2017-12-04T02:18:41.753Z,21.49
2017-12-04T02:18:54.835Z,21.58
2017-12-04T02:19:07.952Z,21.53
2017-12-04T02:19:20.625Z,21.52
2017-12-04T02:19:33.677Z,21.51
2017-12-04T02:19:46.762Z,21.55
2017-12-04T02:19:59.919Z,21.53
2017-12-04T02:20:13.218Z,21.58
2017-12-04T02:20:25.800Z,21.56
2017-12-04T02:20:37.979Z,21.61
2017-12-04T02:20:51.133Z,21.59
2017-12-04T02:21:03.287Z,21.58
2017-12-04T02:21:16.382Z,21.61
2017-12-04T02:21:29.534Z,21.52
2017-12-04T02:21:42.190Z,21.55
2017-12-04T02:21:55.331Z,21.56
2017-12-04T02:22:08.497Z,21.56
2017-12-04T02:22:21.566Z,21.59
2017-12-04T02:22:34.713Z,21.53
2017-12-04T02:22:47.789Z,21.59
2017-12-04T02:23:00.925Z,21.61
2017-12-04T02:23:13.121Z,21.59
2017-12-04T02:23:26.261Z,21.61
2017-12-04T02:23:39.306Z,21.53
2017-12-04T02:23:52.437Z,21.61
2017-12-04T02:24:05.533Z,21.61
2017-12-04T02:24:17.674Z,21.66
2017-12-04T02:24:30.795Z,21.64
2017-12-04T02:24:43.925Z,21.64
2017-12-04T02:24:57.022Z,21.62
2017-12-04T02:25:10.111Z,21.61
2017-12-04T02:25:23.228Z,21.61
2017-12-04T02:25:36.316Z,21.62
2017-12-04T02:25:49.354Z,21.53
2017-12-04T02:26:02.528Z,21.59
2017-12-04T02:26:15.644Z,21.59
2017-12-04T02:26:28.756Z,21.59
2017-12-04T02:26:41.824Z,21.66
2017-12-04T02:26:54.927Z,21.62
2017-12-04T02:27:08.040Z,21.62
2017-12-04T02:27:20.660Z,21.66
2017-12-04T02:27:33.784Z,21.66
2017-12-04T02:27:46.468Z,21.52
2017-12-04T02:27:59.608Z,21.66
2017-12-04T02:28:12.708Z,21.62
2017-12-04T02:28:25.834Z,21.62
2017-12-04T02:28:38.967Z,21.62
2017-12-04T02:28:52.085Z,21.58
2017-12-04T02:29:05.154Z,21.61
2017-12-04T02:29:17.831Z,21.64
2017-12-04T02:29:30.904Z,21.52
2017-12-04T02:29:43.979Z,21.52
2017-12-04T02:29:56.621Z,21.55
2017-12-04T02:30:09.909Z,21.52
2017-12-04T02:30:22.999Z,21.56
2017-12-04T02:30:35.654Z,21.53
2017-12-04T02:30:48.803Z,21.52
2017-12-04T02:31:01.898Z,21.58
2017-12-04T02:31:13.559Z,21.55
2017-12-04T02:31:26.610Z,21.55
2017-12-04T02:31:39.715Z,21.52
2017-12-04T02:31:51.887Z,21.59
2017-12-04T02:32:04.991Z,21.56
2017-12-04T02:32:18.105Z,21.55
2017-12-04T02:32:31.225Z,21.59
2017-12-04T02:32:43.875Z,21.59
2017-12-04T02:32:56.940Z,21.62
2017-12-04T02:33:09.569Z,21.61
2017-12-04T02:33:22.674Z,21.59
2017-12-04T02:33:35.816Z,21.62
2017-12-04T02:33:47.991Z,21.64
2017-12-04T02:34:01.110Z,21.62
2017-12-04T02:34:13.772Z,21.56
2017-12-04T02:34:26.919Z,21.59
2017-12-04T02:34:39.524Z,21.59
2017-12-04T02:34:52.577Z,21.56
2017-12-04T02:35:05.204Z,21.62
2017-12-04T02:35:18.061Z,21.59
2017-12-04T02:35:31.203Z,21.59
2017-12-04T02:35:43.892Z,21.61
2017-12-04T02:35:57.002Z,21.56
2017-12-04T02:36:10.114Z,21.56
2017-12-04T02:36:23.456Z,21.55
2017-12-04T02:36:36.568Z,21.53
2017-12-04T02:36:49.680Z,21.49
2017-12-04T02:37:02.828Z,21.62
2017-12-04T02:37:14.965Z,21.55
2017-12-04T02:37:28.067Z,21.59
2017-12-04T02:37:41.148Z,21.53
2017-12-04T02:37:54.263Z,21.55
2017-12-04T02:38:07.370Z,21.58
2017-12-04T02:38:19.584Z,21.52
2017-12-04T02:38:32.207Z,21.56
2017-12-04T02:38:44.821Z,21.51
2017-12-04T02:38:57.964Z,21.52
2017-12-04T02:39:10.566Z,21.55
2017-12-04T02:39:23.241Z,21.58
2017-12-04T02:39:36.440Z,21.56
2017-12-04T02:39:49.529Z,21.53
2017-12-04T02:40:02.644Z,21.52
2017-12-04T02:40:15.330Z,21.56
2017-12-04T02:40:28.003Z,21.59
2017-12-04T02:40:41.126Z,21.52
2017-12-04T02:40:54.231Z,21.55
2017-12-04T02:41:07.361Z,21.56
2017-12-04T02:41:20.436Z,21.51
2017-12-04T02:41:32.582Z,21.53
2017-12-04T02:41:45.684Z,21.53
2017-12-04T02:41:58.363Z,21.53
2017-12-04T02:42:10.953Z,21.49
2017-12-04T02:42:24.074Z,21.53
2017-12-04T02:42:37.198Z,21.52
2017-12-04T02:42:49.830Z,21.46
2017-12-04T02:43:02.930Z,21.49
2017-12-04T02:43:16.081Z,21.43
2017-12-04T02:43:29.207Z,21.43
2017-12-04T02:43:41.846Z,21.37
2017-12-04T02:43:54.991Z,21.45
2017-12-04T02:44:08.125Z,21.34
2017-12-04T02:44:21.247Z,21.33
2017-12-04T02:44:33.842Z,21.3
2017-12-04T02:44:46.482Z,21.4
2017-12-04T02:44:59.605Z,21.38
2017-12-04T02:45:12.237Z,21.28
2017-12-04T02:45:26.102Z,21.38
2017-12-04T02:45:39.399Z,21.28
2017-12-04T02:45:52.543Z,21.23
2017-12-04T02:46:05.137Z,21.27
2017-12-04T02:46:18.230Z,21.3
2017-12-04T02:46:31.383Z,21.33
2017-12-04T02:46:44.502Z,21.23
2017-12-04T02:46:57.638Z,21.27